Time;durP1;ratioP1;P1;durP2;ratioP2;P2;SDS_P1;SDS_P2;PMS_P1;PMS_P2;Temp;Humidity;BMP_temperature;BMP_pressure;BME280_temperature;BME280_humidity;BME280_pressure;Samples;Min_cycle;Max_cycle;Signal;HPM_P1;HPM_P2
2022/03/16 00:02:20;;;;;;;;;;;;;;;10.81;34.81;100316.88;4388775;32;34000;-83
2022/03/16 00:04:48;;;;;;;;;;;;;;;10.68;35.43;100292.31;4401518;32;35981;-81
2022/03/16 00:07:16;;;;;;;;;;;;;;;10.63;36.06;100300.69;4401478;32;35946;-82
2022/03/16 00:09:43;;;;;;;;;;;;;;;10.78;35.23;100309.16;4388847;32;33416;-80
2022/03/16 00:12:11;;;;;;;;;;;;;;;10.60;35.71;100314.25;4415708;32;34238;-82
2022/03/16 00:14:39;;;;;;;;;;;;;;;10.86;35.74;100320.00;4400873;32;36139;-82
2022/03/16 00:17:06;;;;;;;;;;;;;;;11.01;35.86;100313.31;4401251;32;32997;-83
2022/03/16 00:19:34;;;;;;;;;;;;;;;10.97;35.61;100309.25;4401310;32;32935;-83
2022/03/16 00:22:02;;;;;;;;;;;;;;;11.07;35.59;100316.28;4388462;32;32817;-82
2022/03/16 00:24:30;;;;;;;;;;;;;;;11.24;34.62;100312.13;4401273;32;35709;-83
2022/03/16 00:26:58;;;;;;;;;;;;;;;11.17;35.25;100305.66;4401287;32;34460;-83
2022/03/16 00:29:26;;;;;;;;;;;;;;;11.32;35.31;100299.81;4400990;32;32806;-83
2022/03/16 00:31:53;;;;;;;;;;;;;;;11.14;36.86;100295.28;4414891;32;34781;-82
2022/03/16 00:34:20;;;;;;;;;;;;;;;11.21;37.76;100296.44;4415071;32;34951;-83
2022/03/16 00:36:47;;;;;;;;;;;;;;;11.38;38.28;100289.47;4414545;32;33977;-80
2022/03/16 00:39:15;;;;;;;;;;;;;;;11.28;40.28;100301.06;4388588;32;32823;-83
2022/03/16 00:41:42;;;;;;;;;;;;;;;11.36;41.05;100299.41;4401352;32;34140;-82
2022/03/16 00:44:09;;;;;;;;;;;;;;;11.41;41.53;100288.34;4414945;32;35689;-82
2022/03/16 00:46:38;;;;;;;;;;;;;;;11.48;42.98;100286.81;4414661;32;34922;-83
2022/03/16 00:49:06;;;;;;;;;;;;;;;11.72;42.94;100287.31;4400994;32;33087;-82
2022/03/16 00:51:33;;;;;;;;;;;;;;;11.65;41.19;100287.00;4414956;32;34033;-80
2022/03/16 00:54:01;;;;;;;;;;;;;;;11.32;41.17;100275.84;4400956;32;34896;-83
2022/03/16 00:56:32;;;;;;;;;;;;;;;11.11;43.33;100277.75;4401599;32;35056;-82
2022/03/16 00:59:00;;;;;;;;;;;;;;;11.26;44.14;100272.88;4388250;32;31989;-84
2022/03/16 01:01:27;;;;;;;;;;;;;;;11.03;42.04;100264.28;4400743;32;33289;-83
2022/03/16 01:03:56;;;;;;;;;;;;;;;11.16;41.97;100261.37;4401425;32;35960;-82
2022/03/16 01:06:23;;;;;;;;;;;;;;;11.39;41.87;100253.00;4400047;32;33465;-82
2022/03/16 01:08:50;;;;;;;;;;;;;;;11.37;40.77;100254.97;4414425;32;34106;-83
2022/03/16 01:11:18;;;;;;;;;;;;;;;11.25;42.13;100255.22;4401120;32;33661;-83
2022/03/16 01:13:46;;;;;;;;;;;;;;;11.22;42.99;100253.66;4388149;32;33413;-83
2022/03/16 01:16:13;;;;;;;;;;;;;;;11.27;43.25;100265.59;4400620;32;33222;-82
2022/03/16 01:18:41;;;;;;;;;;;;;;;11.33;43.20;100264.19;4401359;32;33559;-84
2022/03/16 01:21:08;;;;;;;;;;;;;;;11.45;43.18;100266.59;4414937;32;34163;-84
2022/03/16 01:23:35;;;;;;;;;;;;;;;11.56;42.82;100269.12;4400839;32;35298;-83
2022/03/16 01:26:03;;;;;;;;;;;;;;;11.59;42.30;100278.72;4414583;32;34154;-82
2022/03/16 01:28:31;;;;;;;;;;;;;;;11.62;42.27;100284.63;4400170;32;32353;-82
2022/03/16 01:31:00;;;;;;;;;;;;;;;11.53;43.35;100288.06;4400512;32;34921;-84
2022/03/16 01:33:28;;;;;;;;;;;;;;;11.67;42.68;100289.53;4414438;32;36101;-83
2022/03/16 01:35:55;;;;;;;;;;;;;;;11.71;42.51;100290.97;4415062;32;34929;-83
2022/03/16 01:38:23;;;;;;;;;;;;;;;11.56;43.15;100301.13;4400882;32;33499;-84
2022/03/16 01:40:51;;;;;;;;;;;;;;;11.63;42.58;100304.94;4401027;32;33688;-83
2022/03/16 01:43:20;;;;;;;;;;;;;;;11.43;43.22;100305.88;4400566;32;35601;-84
2022/03/16 01:45:48;;;;;;;;;;;;;;;11.68;42.38;100302.72;4400773;32;34110;-82
2022/03/16 01:48:15;;;;;;;;;;;;;;;11.67;42.27;100303.72;4401087;32;33710;-83
2022/03/16 01:50:47;;;;;;;;;;;;;;;11.67;42.35;100289.53;4400799;32;33750;-83
2022/03/16 01:53:15;;;;;;;;;;;;;;;11.72;42.72;100296.12;4400943;32;32836;-83
2022/03/16 01:55:43;;;;;;;;;;;;;;;11.84;43.75;100288.84;4400849;32;34616;-83
2022/03/16 01:58:13;;;;;;;;;;;;;;;12.05;42.68;100289.53;4400119;32;33533;-82
2022/03/16 02:00:41;;;;;;;;;;;;;;;12.06;42.14;100281.41;4400337;32;35198;-82
2022/03/16 02:03:08;;;;;;;;;;;;;;;11.68;43.47;100275.22;4400464;32;36514;-83
2022/03/16 02:05:36;;;;;;;;;;;;;;;11.61;43.53;100279.41;4400979;32;34979;-83
2022/03/16 02:08:08;;;;;;;;;;;;;;;11.48;43.77;100278.81;4388385;32;31564;-84
2022/03/16 02:10:35;;;;;;;;;;;;;;;11.31;45.42;100284.81;4414329;32;33380;-83
2022/03/16 02:13:03;;;;;;;;;;;;;;;11.35;44.85;100289.72;4400662;32;33769;-83
2022/03/16 02:15:30;;;;;;;;;;;;;;;11.40;44.38;100279.53;4387730;32;33214;-83
2022/03/16 02:17:58;;;;;;;;;;;;;;;11.44;44.50;100275.59;4413261;32;33190;-81
2022/03/16 02:20:27;;;;;;;;;;;;;;;11.52;45.46;100267.75;4414243;32;33650;-81
2022/03/16 02:23:01;;;;;;;;;;;;;;;11.46;45.60;100264.81;4414383;32;35767;-83
2022/03/16 02:25:30;;;;;;;;;;;;;;;11.91;43.04;100257.97;4413990;32;35246;-83
2022/03/16 02:27:57;;;;;;;;;;;;;;;11.31;44.71;100258.19;4388345;32;32002;-83
2022/03/16 02:30:26;;;;;;;;;;;;;;;11.27;46.11;100259.44;4414521;32;33553;-83
2022/03/16 02:32:54;;;;;;;;;;;;;;;11.31;45.97;100254.69;4414139;32;35054;-81
2022/03/16 02:35:22;;;;;;;;;;;;;;;11.36;45.66;100242.62;4400350;32;34725;-82
2022/03/16 02:37:49;;;;;;;;;;;;;;;11.26;46.34;100235.59;4400143;32;33374;-83
2022/03/16 02:40:23;;;;;;;;;;;;;;;10.63;49.34;100231.50;4387773;32;33917;-83
2022/03/16 02:42:50;;;;;;;;;;;;;;;11.35;47.19;100223.13;4414012;32;35055;-83
2022/03/16 02:45:18;;;;;;;;;;;;;;;11.36;46.96;100224.81;4400137;32;34778;-81
2022/03/16 02:47:47;;;;;;;;;;;;;;;11.18;47.50;100219.47;4400071;32;33290;-82
2022/03/16 02:50:16;;;;;;;;;;;;;;;11.25;46.83;100213.47;4400253;32;34885;-83
2022/03/16 02:52:44;;;;;;;;;;;;;;;11.37;46.22;100207.84;4387766;32;33719;-83
2022/03/16 02:55:32;;;;;;;;;;;;;;;11.43;46.16;100214.44;4413773;32;35823;-82
2022/03/16 02:58:00;;;;;;;;;;;;;;;11.47;46.11;100200.69;4413885;32;33298;-83
2022/03/16 03:00:27;;;;;;;;;;;;;;;11.50;46.32;100199.59;4413974;32;34877;-82
2022/03/16 03:02:55;;;;;;;;;;;;;;;11.43;47.25;100198.44;4399988;32;35407;-83
2022/03/16 03:05:22;;;;;;;;;;;;;;;11.47;46.93;100194.53;4413867;32;34224;-83
2022/03/16 03:07:49;;;;;;;;;;;;;;;11.49;46.99;100187.25;4399785;32;34073;-82
2022/03/16 03:10:17;;;;;;;;;;;;;;;11.56;46.93;100196.37;4400010;32;34690;-84
2022/03/16 03:12:44;;;;;;;;;;;;;;;11.58;46.84;100197.09;4414096;32;35125;-82
2022/03/16 03:15:13;;;;;;;;;;;;;;;11.63;46.53;100189.53;4400061;32;34507;-83
2022/03/16 03:17:41;;;;;;;;;;;;;;;11.58;46.65;100181.09;4399949;32;32688;-82
2022/03/16 03:20:09;;;;;;;;;;;;;;;11.53;47.38;100186.00;4413681;32;34119;-82
2022/03/16 03:22:37;;;;;;;;;;;;;;;11.54;47.69;100174.34;4405817;32;33686;-82
2022/03/16 03:25:05;;;;;;;;;;;;;;;11.47;48.92;100167.91;4399904;32;34739;-82
2022/03/16 03:27:33;;;;;;;;;;;;;;;10.77;51.71;100164.59;4387537;32;33261;-83
2022/03/16 03:30:00;;;;;;;;;;;;;;;11.24;51.32;100155.00;4399719;32;33259;-82
2022/03/16 03:32:27;;;;;;;;;;;;;;;10.97;52.31;100147.72;4399796;32;34661;-82
2022/03/16 03:34:55;;;;;;;;;;;;;;;11.15;51.37;100142.53;4400116;32;33893;-83
2022/03/16 03:37:25;;;;;;;;;;;;;;;11.18;51.07;100128.94;4399969;32;33137;-83
2022/03/16 03:39:52;;;;;;;;;;;;;;;11.07;51.71;100129.06;4387526;32;33689;-82
2022/03/16 03:42:20;;;;;;;;;;;;;;;11.00;53.70;100110.16;4386677;32;34419;-81
2022/03/16 03:44:47;;;;;;;;;;;;;;;11.27;52.86;100106.78;4387070;32;34202;-82
2022/03/16 03:47:14;;;;;;;;;;;;;;;11.08;53.96;100096.12;4399399;32;31824;-81
2022/03/16 03:49:42;;;;;;;;;;;;;;;10.88;54.73;100094.44;4399925;32;34406;-82
2022/03/16 03:52:09;;;;;;;;;;;;;;;10.96;54.07;100095.41;4386532;32;34519;-83
2022/03/16 03:54:37;;;;;;;;;;;;;;;10.80;54.72;100097.81;4411608;32;33243;-83
2022/03/16 03:57:04;;;;;;;;;;;;;;;10.99;54.88;100087.19;4399889;32;33460;-83
2022/03/16 03:59:31;;;;;;;;;;;;;;;11.01;55.11;100077.22;4399459;32;34315;-83
2022/03/16 04:01:59;;;;;;;;;;;;;;;11.00;54.79;100086.19;4386791;32;34521;-81
2022/03/16 04:04:26;;;;;;;;;;;;;;;11.10;53.78;100087.03;4385718;32;33240;-82
2022/03/16 04:06:55;;;;;;;;;;;;;;;11.12;53.69;100078.91;4398804;32;32526;-83
2022/03/16 04:09:22;;;;;;;;;;;;;;;10.90;54.37;100077.37;4386348;32;33288;-82
2022/03/16 04:11:50;;;;;;;;;;;;;;;10.78;55.26;100074.97;4412776;32;36221;-82
2022/03/16 04:14:17;;;;;;;;;;;;;;;10.79;55.67;100066.84;4412903;32;35649;-83
2022/03/16 04:16:44;;;;;;;;;;;;;;;10.96;55.15;100067.97;4412593;32;33347;-82
2022/03/16 04:19:12;;;;;;;;;;;;;;;10.91;54.89;100065.72;4397243;32;33689;-83
2022/03/16 04:21:39;;;;;;;;;;;;;;;10.95;54.72;100067.13;4398838;32;35355;-83
2022/03/16 04:24:06;;;;;;;;;;;;;;;10.97;54.28;100069.66;4399533;32;34675;-83
2022/03/16 04:26:34;;;;;;;;;;;;;;;11.04;54.60;100070.78;4386936;32;32826;-83
2022/03/16 04:29:01;;;;;;;;;;;;;;;10.98;54.96;100084.66;4397684;32;32555;-83
2022/03/16 04:31:29;;;;;;;;;;;;;;;10.94;55.06;100080.59;4397606;32;33740;-81
2022/03/16 04:33:57;;;;;;;;;;;;;;;10.98;54.99;100074.84;4386591;32;35070;-81
2022/03/16 04:36:26;;;;;;;;;;;;;;;10.57;56.00;100064.44;4399569;32;31777;-82
2022/03/16 04:38:53;;;;;;;;;;;;;;;10.58;55.22;100071.44;4398387;32;34169;-83
2022/03/16 04:41:21;;;;;;;;;;;;;;;10.89;54.27;100073.03;4413375;32;35670;-81
2022/03/16 04:43:48;;;;;;;;;;;;;;;10.97;53.79;100065.19;4388252;32;34191;-82
2022/03/16 04:46:15;;;;;;;;;;;;;;;10.96;53.24;100070.63;4415439;32;33938;-83
2022/03/16 04:48:43;;;;;;;;;;;;;;;10.87;52.69;100066.16;4401093;32;33673;-81
2022/03/16 04:51:11;;;;;;;;;;;;;;;11.02;51.87;100076.25;4401270;32;34914;-80
2022/03/16 04:53:38;;;;;;;;;;;;;;;10.55;54.08;100079.69;4387580;32;34146;-82
2022/03/16 04:56:05;;;;;;;;;;;;;;;10.60;53.69;100079.28;4414562;32;33520;-82
2022/03/16 04:58:33;;;;;;;;;;;;;;;10.92;53.09;100093.19;4400548;32;34867;-83
2022/03/16 05:01:00;;;;;;;;;;;;;;;11.12;52.47;100098.37;4413928;32;35077;-82
2022/03/16 05:03:28;;;;;;;;;;;;;;;10.99;52.83;100097.81;4413278;32;35739;-83
2022/03/16 05:05:55;;;;;;;;;;;;;;;11.08;52.40;100098.78;4400296;32;33123;-83
2022/03/16 05:08:23;;;;;;;;;;;;;;;11.18;51.82;100105.81;4388383;32;33601;-83
2022/03/16 05:10:50;;;;;;;;;;;;;;;10.90;52.84;100108.44;4414722;32;35007;-82
2022/03/16 05:13:18;;;;;;;;;;;;;;;10.97;52.17;100113.09;4414835;32;34910;-83
2022/03/16 05:15:47;;;;;;;;;;;;;;;11.03;52.20;100112.53;4408460;32;32841;-83
2022/03/16 05:18:15;;;;;;;;;;;;;;;11.02;52.25;100110.84;4400776;32;33049;-83
2022/03/16 05:20:42;;;;;;;;;;;;;;;11.09;51.94;100111.97;4400656;32;35171;-83
2022/03/16 05:23:09;;;;;;;;;;;;;;;11.10;52.19;100118.97;4400817;32;33922;-83
2022/03/16 05:25:37;;;;;;;;;;;;;;;10.96;52.34;100118.56;4401017;32;32438;-83
2022/03/16 05:28:04;;;;;;;;;;;;;;;11.24;51.63;100115.88;4400291;32;33586;-82
2022/03/16 05:30:31;;;;;;;;;;;;;;;11.02;52.49;100113.50;4400866;32;34670;-82
2022/03/16 05:33:00;;;;;;;;;;;;;;;11.03;52.79;100119.69;4400788;32;33732;-82
2022/03/16 05:35:28;;;;;;;;;;;;;;;11.10;52.54;100115.47;4400910;32;33061;-82
2022/03/16 05:37:56;;;;;;;;;;;;;;;11.13;52.68;100110.72;4388511;32;34741;-83
2022/03/16 05:40:23;;;;;;;;;;;;;;;11.09;52.62;100100.47;4399772;32;36685;-83
2022/03/16 05:42:51;;;;;;;;;;;;;;;11.00;53.22;100101.31;4401026;32;35007;-83
2022/03/16 05:45:21;;;;;;;;;;;;;;;10.87;53.58;100106.06;4400962;32;33388;-79
2022/03/16 05:47:49;;;;;;;;;;;;;;;11.03;53.36;100106.38;4414652;32;34903;-81
2022/03/16 05:50:17;;;;;;;;;;;;;;;11.19;53.13;100109.31;4400666;32;36177;-81
2022/03/16 05:52:46;;;;;;;;;;;;;;;11.14;53.94;100114.22;4400459;32;34853;-80
2022/03/16 05:55:14;;;;;;;;;;;;;;;11.17;53.81;100112.13;4400678;32;34687;-82
2022/03/16 05:57:43;;;;;;;;;;;;;;;11.06;54.35;100124.72;4388411;32;34357;-79
2022/03/16 06:00:14;;;;;;;;;;;;;;;10.95;54.50;100140.84;4414650;32;35246;-80
2022/03/16 06:02:46;;;;;;;;;;;;;;;10.64;55.63;100149.84;4414342;32;35236;-80
2022/03/16 06:05:14;;;;;;;;;;;;;;;10.35;56.11;100154.25;4387959;32;32747;-80
2022/03/16 06:07:41;;;;;;;;;;;;;;;10.80;54.77;100151.03;4387863;32;34604;-79
2022/03/16 06:10:10;;;;;;;;;;;;;;;10.73;55.08;100144.56;4400361;32;34848;-79
2022/03/16 06:12:54;;;;;;;;;;;;;;;10.95;53.97;100149.66;4400385;32;35788;-79
2022/03/16 06:15:24;;;;;;;;;;;;;;;11.09;54.26;100143.06;4400651;32;33350;-80
2022/03/16 06:17:52;;;;;;;;;;;;;;;10.98;54.58;100148.53;4400426;32;33648;-79
2022/03/16 06:20:19;;;;;;;;;;;;;;;10.95;55.49;100151.47;4387593;32;35304;-80
2022/03/16 06:22:47;;;;;;;;;;;;;;;10.78;56.18;100161.00;4400481;32;34921;-87
2022/03/16 06:25:14;;;;;;;;;;;;;;;10.67;56.68;100152.25;4388037;32;34207;-81
2022/03/16 06:27:41;;;;;;;;;;;;;;;11.01;56.41;100142.91;4413778;32;34638;-80
2022/03/16 06:30:09;;;;;;;;;;;;;;;10.95;56.86;100148.81;4413945;32;37085;-80
2022/03/16 06:32:37;;;;;;;;;;;;;;;11.05;56.46;100145.16;4387233;32;34859;-80
2022/03/16 06:35:05;;;;;;;;;;;;;;;11.02;56.70;100145.47;4400536;32;33603;-82
2022/03/16 06:37:32;;;;;;;;;;;;;;;11.27;56.22;100138.75;4413957;32;34143;-81
2022/03/16 06:40:00;;;;;;;;;;;;;;;10.99;57.73;100140.41;4400354;32;35751;-80
2022/03/16 06:42:27;;;;;;;;;;;;;;;11.14;57.67;100139.00;4400069;32;33985;-82
2022/03/16 06:44:55;;;;;;;;;;;;;;;11.47;56.71;100141.25;4388058;32;31655;-80
2022/03/16 06:47:22;;;;;;;;;;;;;;;11.51;57.25;100147.97;4401236;32;34321;-80
2022/03/16 06:49:49;;;;;;;;;;;;;;;11.17;58.30;100153.88;4415263;32;36089;-80
2022/03/16 06:52:17;;;;;;;;;;;;;;;11.60;57.35;100157.81;4388596;32;34761;-80
2022/03/16 06:54:44;;;;;;;;;;;;;;;11.43;58.12;100150.50;4399908;32;34180;-80
2022/03/16 06:57:12;;;;;;;;;;;;;;;11.39;58.27;100151.78;4387746;32;34641;-81
2022/03/16 06:59:59;;;;;;;;;;;;;;;11.30;58.39;100157.94;4400262;32;33931;-80
2022/03/16 07:02:26;;;;;;;;;;;;;;;11.31;58.60;100156.97;4400719;32;34519;-80
2022/03/16 07:04:53;;;;;;;;;;;;;;;11.05;59.70;100158.47;4388235;32;33010;-77
2022/03/16 07:07:25;;;;;;;;;;;;;;;10.78;60.74;100168.12;4415729;32;35228;-82
2022/03/16 07:09:52;;;;;;;;;;;;;;;11.08;59.86;100168.88;4399286;32;34109;-80
2022/03/16 07:12:20;;;;;;;;;;;;;;;10.81;60.86;100174.00;4400468;32;34371;-81
2022/03/16 07:14:47;;;;;;;;;;;;;;;10.93;60.63;100172.09;4388010;32;31793;-81
2022/03/16 07:17:14;;;;;;;;;;;;;;;10.79;61.42;100172.44;4400428;32;34050;-82
2022/03/16 07:19:42;;;;;;;;;;;;;;;11.11;60.89;100165.94;4399921;32;35662;-82
2022/03/16 07:22:10;;;;;;;;;;;;;;;11.11;60.88;100165.94;4385111;32;32626;-83
2022/03/16 07:24:37;;;;;;;;;;;;;;;11.15;61.30;100164.66;4414643;32;33418;-83
2022/03/16 07:27:06;;;;;;;;;;;;;;;11.39;60.47;100170.44;4386232;32;32356;-82
2022/03/16 07:29:34;;;;;;;;;;;;;;;11.12;61.05;100175.59;4384535;32;33402;-82
2022/03/16 07:32:01;;;;;;;;;;;;;;;11.10;61.82;100164.25;4398840;32;32563;-80
2022/03/16 07:34:29;;;;;;;;;;;;;;;10.92;62.79;100165.91;4414780;32;34282;-81
2022/03/16 07:36:57;;;;;;;;;;;;;;;10.89;63.20;100166.19;4398884;32;35088;-81
2022/03/16 07:39:27;;;;;;;;;;;;;;;10.82;63.54;100170.38;4399627;32;34869;-81
2022/03/16 07:41:54;;;;;;;;;;;;;;;11.08;62.81;100171.53;4382157;32;32392;-79
2022/03/16 07:44:22;;;;;;;;;;;;;;;10.99;62.93;100169.69;4398440;32;33738;-81
2022/03/16 07:46:50;;;;;;;;;;;;;;;10.83;63.70;100161.41;4413856;32;35107;-80
2022/03/16 07:49:17;;;;;;;;;;;;;;;10.86;63.84;100173.59;4412598;32;35435;-81
2022/03/16 07:51:45;;;;;;;;;;;;;;;10.83;63.91;100177.38;4385966;32;34908;-82
2022/03/16 07:54:13;;;;;;;;;;;;;;;10.87;63.79;100180.59;4397703;32;33143;-82
2022/03/16 07:56:40;;;;;;;;;;;;;;;11.03;63.22;100180.91;4412623;32;34383;-81
2022/03/16 07:59:08;;;;;;;;;;;;;;;11.49;61.85;100176.59;4396483;32;34163;-83
2022/03/16 08:01:35;;;;;;;;;;;;;;;11.15;63.03;100188.63;4397899;32;34111;-81
2022/03/16 08:04:06;;;;;;;;;;;;;;;11.15;62.93;100187.78;4412047;32;33937;-80
2022/03/16 08:06:33;;;;;;;;;;;;;;;11.29;62.74;100177.56;4398064;32;32313;-82
2022/03/16 08:09:01;;;;;;;;;;;;;;;11.33;62.66;100181.62;4412597;32;34679;-82
2022/03/16 08:11:28;;;;;;;;;;;;;;;11.48;62.21;100190.91;4385188;32;35553;-82
2022/03/16 08:13:56;;;;;;;;;;;;;;;11.69;61.71;100192.47;4386176;32;31716;-83
2022/03/16 08:16:23;;;;;;;;;;;;;;;11.65;61.62;100184.91;4400095;32;34609;-81
2022/03/16 08:18:51;;;;;;;;;;;;;;;11.65;61.67;100191.06;4400172;32;36232;-82
2022/03/16 08:21:18;;;;;;;;;;;;;;;11.53;62.11;100199.31;4400539;32;34520;-81
2022/03/16 08:23:45;;;;;;;;;;;;;;;11.85;61.00;100195.41;4388086;32;32505;-82
2022/03/16 08:26:13;;;;;;;;;;;;;;;11.61;61.74;100195.00;4400892;32;33835;-81
2022/03/16 08:28:40;;;;;;;;;;;;;;;11.83;60.72;100200.00;4388173;32;34753;-82
2022/03/16 08:31:08;;;;;;;;;;;;;;;11.74;60.51;100202.72;4414133;32;34493;-83
2022/03/16 08:33:36;;;;;;;;;;;;;;;11.58;60.56;100216.59;4400153;32;32434;-81
2022/03/16 08:36:07;;;;;;;;;;;;;;;11.67;60.16;100207.78;4401656;32;33442;-82
2022/03/16 08:38:37;;;;;;;;;;;;;;;11.52;60.47;100214.47;4414870;32;36129;-80
2022/03/16 08:41:06;;;;;;;;;;;;;;;11.53;60.38;100216.13;4414901;32;35211;-81
2022/03/16 08:43:34;;;;;;;;;;;;;;;11.62;60.86;100222.50;4414664;32;34029;-82
2022/03/16 08:46:01;;;;;;;;;;;;;;;11.68;60.72;100221.91;4388766;32;34054;-81
2022/03/16 08:48:29;;;;;;;;;;;;;;;11.20;62.83;100217.50;4396958;32;35329;-82
2022/03/16 08:50:56;;;;;;;;;;;;;;;11.15;63.57;100228.56;4413328;32;33923;-84
2022/03/16 08:53:24;;;;;;;;;;;;;;;11.24;63.69;100230.41;4388422;32;33047;-82
2022/03/16 08:55:53;;;;;;;;;;;;;;;10.96;63.82;100244.50;4400483;32;33981;-82
2022/03/16 08:58:20;;;;;;;;;;;;;;;10.69;65.28;100248.75;4414675;32;34932;-82
2022/03/16 09:00:48;;;;;;;;;;;;;;;11.04;64.22;100246.50;4401035;32;34644;-81
2022/03/16 09:03:15;;;;;;;;;;;;;;;11.25;63.43;100244.56;4400945;32;33715;-81
2022/03/16 09:05:43;;;;;;;;;;;;;;;10.91;64.61;100251.22;4414252;32;34606;-81
2022/03/16 09:08:10;;;;;;;;;;;;;;;11.18;63.38;100246.09;4400161;32;35264;-83
2022/03/16 09:10:38;;;;;;;;;;;;;;;11.20;63.22;100242.31;4388260;32;32950;-82
2022/03/16 09:13:06;;;;;;;;;;;;;;;11.32;62.61;100246.53;4388314;32;33791;-83
2022/03/16 09:15:37;;;;;;;;;;;;;;;11.38;61.87;100244.19;4400933;32;33891;-83
2022/03/16 09:18:06;;;;;;;;;;;;;;;11.20;61.83;100242.31;4414281;32;36588;-81
2022/03/16 09:20:33;;;;;;;;;;;;;;;11.37;61.65;100252.31;4414316;32;35423;-80
2022/03/16 09:23:01;;;;;;;;;;;;;;;11.21;61.73;100249.34;4400970;32;33222;-81
2022/03/16 09:25:29;;;;;;;;;;;;;;;11.40;61.32;100255.53;4400143;32;34491;-82
2022/03/16 09:27:56;;;;;;;;;;;;;;;11.32;61.33;100261.69;4400522;32;35042;-79
2022/03/16 09:30:24;;;;;;;;;;;;;;;11.28;61.25;100274.44;4414609;32;34812;-80
2022/03/16 09:32:57;;;;;;;;;;;;;;;11.17;60.64;100273.72;4414569;32;33263;-82
2022/03/16 09:35:27;;;;;;;;;;;;;;;11.07;61.23;100278.16;4401521;32;34655;-81
2022/03/16 09:37:54;;;;;;;;;;;;;;;10.64;62.77;100288.22;4413869;32;35372;-80
2022/03/16 09:40:22;;;;;;;;;;;;;;;10.66;63.48;100283.63;4414348;32;34801;-81
2022/03/16 09:42:49;;;;;;;;;;;;;;;10.89;62.76;100287.78;4388414;32;32784;-81
2022/03/16 09:45:18;;;;;;;;;;;;;;;10.36;63.85;100297.72;4399300;32;33515;-81
2022/03/16 09:47:46;;;;;;;;;;;;;;;10.37;64.44;100306.56;4400704;32;35199;-81
2022/03/16 09:50:19;;;;;;;;;;;;;;;10.30;65.00;100306.22;4414370;32;34346;-82
2022/03/16 09:52:47;;;;;;;;;;;;;;;10.45;64.38;100312.06;4399657;32;33149;-83
2022/03/16 09:55:17;;;;;;;;;;;;;;;10.64;63.82;100314.81;4411430;32;34459;-81
2022/03/16 09:57:44;;;;;;;;;;;;;;;10.93;63.13;100314.00;4400173;32;35070;-81
2022/03/16 10:00:12;;;;;;;;;;;;;;;10.63;64.24;100315.78;4412404;32;34714;-82
2022/03/16 10:02:40;;;;;;;;;;;;;;;10.70;64.09;100311.63;4400152;32;33024;-84
2022/03/16 10:05:09;;;;;;;;;;;;;;;10.84;63.81;100328.09;4399850;32;33583;-82
2022/03/16 10:07:37;;;;;;;;;;;;;;;10.78;63.85;100322.47;4413027;32;35047;-82
2022/03/16 10:15:38;;;;;;;;;;;;;;;10.81;63.45;100328.37;4402586;32;33821;-81
2022/03/16 10:18:05;;;;;;;;;;;;;;;10.67;63.38;100331.38;4413902;32;35600;-81
2022/03/16 10:20:34;;;;;;;;;;;;;;;10.61;63.91;100329.25;4414290;32;34988;-82
2022/03/16 10:23:03;;;;;;;;;;;;;;;10.64;63.94;100333.44;4399982;32;32888;-82
2022/03/16 10:25:34;;;;;;;;;;;;;;;10.74;63.38;100332.53;4413644;32;33732;-82
2022/03/16 10:28:11;;;;;;;;;;;;;;;10.95;62.45;100335.97;4400163;32;35676;-82
2022/03/16 10:30:58;;;;;;;;;;;;;;;10.67;63.43;100335.87;4400500;32;34228;-84
2022/03/16 10:33:32;;;;;;;;;;;;;;;10.96;62.47;100339.50;4400391;32;33354;-82
2022/03/16 10:36:06;;;;;;;;;;;;;;;10.75;63.03;100336.88;4414152;32;34079;-82
2022/03/16 10:38:40;;;;;;;;;;;;;;;10.86;62.28;100335.97;4412277;32;35745;-82
2022/03/16 10:41:09;;;;;;;;;;;;;;;10.98;61.80;100332.22;4395429;32;34020;-82
2022/03/16 10:46:35;;;;;;;;;;;;;;;10.88;62.03;100339.31;4389114;32;32869;-82
2022/03/16 10:49:05;;;;;;;;;;;;;;;10.86;61.77;100338.63;4388505;32;34871;-82
2022/03/16 10:51:33;;;;;;;;;;;;;;;10.91;62.39;100337.25;4387110;32;33651;-81
2022/03/16 10:54:14;;;;;;;;;;;;;;;11.10;61.40;100337.31;4401047;32;33655;-82
2022/03/16 10:56:44;;;;;;;;;;;;;;;11.46;60.32;100350.06;4391528;32;32772;-81
2022/03/16 10:59:12;;;;;;;;;;;;;;;11.59;59.56;100340.00;4387307;32;34890;-81
2022/03/16 11:01:40;;;;;;;;;;;;;;;11.10;60.98;100344.44;4399266;32;34558;-82
2022/03/16 11:04:08;;;;;;;;;;;;;;;11.47;59.42;100347.25;4399927;32;33001;-81
2022/03/16 11:06:37;;;;;;;;;;;;;;;11.19;60.18;100359.63;4386844;32;33441;-81
2022/03/16 11:09:08;;;;;;;;;;;;;;;11.45;59.65;100359.84;4387543;32;33396;-81
2022/03/16 11:14:22;;;;;;;;;;;;;;;11.38;60.37;100357.88;4401791;32;33009;-83
2022/03/16 11:16:50;;;;;;;;;;;;;;;11.64;59.56;100356.44;4399955;32;34363;-82
2022/03/16 11:19:19;;;;;;;;;;;;;;;11.57;58.81;100358.81;4387250;32;33295;-81
2022/03/16 11:22:07;;;;;;;;;;;;;;;11.12;59.94;100366.50;4400027;32;35467;-81
2022/03/16 11:24:36;;;;;;;;;;;;;;;11.21;60.16;100369.16;4387348;32;33059;-81
2022/03/16 11:27:10;;;;;;;;;;;;;;;11.03;60.07;100369.94;4399522;32;34092;-83
2022/03/16 11:29:56;;;;;;;;;;;;;;;11.39;59.18;100371.06;4414209;32;34679;-81
2022/03/16 11:32:24;;;;;;;;;;;;;;;11.41;58.96;100363.78;4413459;32;35685;-81
2022/03/16 11:34:59;;;;;;;;;;;;;;;11.38;58.80;100363.22;4399773;32;32899;-81
2022/03/16 11:37:45;;;;;;;;;;;;;;;10.78;59.87;100370.38;4390191;32;36041;-80
2022/03/16 11:40:14;;;;;;;;;;;;;;;10.64;60.82;100363.56;4399131;32;34270;-80
2022/03/16 11:43:04;;;;;;;;;;;;;;;11.06;59.86;100377.66;4412371;32;34412;-82
2022/03/16 11:45:36;;;;;;;;;;;;;;;10.77;61.04;100382.00;4413588;32;33442;-82
2022/03/16 11:48:22;;;;;;;;;;;;;;;10.53;61.50;100386.72;4413421;32;35029;-83
2022/03/16 11:51:08;;;;;;;;;;;;;;;10.80;60.36;100384.38;4412046;32;36017;-83
2022/03/16 11:54:01;;;;;;;;;;;;;;;11.07;59.78;100379.34;4412228;32;34808;-83
2022/03/16 11:56:34;;;;;;;;;;;;;;;10.98;59.38;100383.66;4411990;32;33974;-84
2022/03/16 11:59:17;;;;;;;;;;;;;;;10.80;59.98;100385.25;4412115;32;34033;-83
2022/03/16 12:01:52;;;;;;;;;;;;;;;10.85;59.41;100390.16;4413104;32;34439;-82
2022/03/16 12:04:30;;;;;;;;;;;;;;;10.59;60.78;100387.03;4413190;32;35297;-81
2022/03/16 12:07:05;;;;;;;;;;;;;;;10.89;59.91;100392.44;4397895;32;33948;-82
2022/03/16 12:09:32;;;;;;;;;;;;;;;10.87;59.44;100393.53;4399366;32;34270;-81
2022/03/16 12:15:20;;;;;;;;;;;;;;;10.93;59.27;100398.34;4400513;32;34580;-80
2022/03/16 12:17:51;;;;;;;;;;;;;;;10.93;59.39;100395.69;4405040;32;33605;-83
2022/03/16 12:20:25;;;;;;;;;;;;;;;11.19;58.25;100400.44;4386866;32;32974;-82
2022/03/16 12:22:53;;;;;;;;;;;;;;;10.57;60.23;100409.47;4411700;32;36093;-83
2022/03/16 12:25:27;;;;;;;;;;;;;;;11.06;58.62;100406.94;4398518;32;34420;-79
2022/03/16 12:31:17;;;;;;;;;;;;;;;10.99;58.86;100413.78;4390543;32;34470;-81
2022/03/16 12:33:48;;;;;;;;;;;;;;;11.32;57.62;100404.56;4397920;32;35764;-79
2022/03/16 12:36:17;;;;;;;;;;;;;;;11.34;57.80;100407.91;4397579;32;35576;-79
2022/03/16 12:38:46;;;;;;;;;;;;;;;11.33;57.35;100402.72;4383454;32;33449;-80
2022/03/16 12:44:02;;;;;;;;;;;;;;;11.66;55.57;100400.63;4397420;32;35088;-81
2022/03/16 12:46:47;;;;;;;;;;;;;;;11.69;54.82;100407.50;4370535;32;33790;-83
2022/03/16 12:49:16;;;;;;;;;;;;;;;11.60;54.94;100417.16;4383656;32;33669;-81
2022/03/16 12:51:45;;;;;;;;;;;;;;;10.58;58.75;100424.44;4384198;32;35040;-81
2022/03/16 12:54:13;;;;;;;;;;;;;;;10.83;57.97;100434.69;4383107;32;34594;-82
2022/03/16 12:56:41;;;;;;;;;;;;;;;10.97;57.43;100435.22;4389758;32;34946;-83
2022/03/16 12:59:09;;;;;;;;;;;;;;;11.22;56.19;100441.94;4396206;32;32822;-82
2022/03/16 13:01:36;;;;;;;;;;;;;;;10.78;56.87;100453.72;4381682;32;34642;-83
2022/03/16 13:04:04;;;;;;;;;;;;;;;11.01;56.19;100449.94;4385566;32;34750;-82
2022/03/16 13:06:33;;;;;;;;;;;;;;;11.07;56.00;100461.88;4399549;32;34595;-80